ローマ/フィウミチーノ の空港の天気 - METARとTAF

ローマ・レオナルド・ダ・ビンチ国際空港 ( LIRF / FCO ) - イタリア ローマ
飛行場実況気象(Metar)
観測時間05/25 04:50 CEST (05/25 02:50 UTC)
風向・風速北 2m/s
視程10km以上
天気現象
なし
気温14℃
湿度100%
気圧1015hPa
METARLIRF 250250Z 35003KT CAVOK 14/14 Q1015 NOSIG
過去の天気等 Google飛行場航空写真 Wunderground天気予報

過去48時間のMETAR

飛行場予報(TAF)
発表時間: 5/25 01:00 CEST (5/24 23:00 UTC)
予報対象時間: 25日2時 CEST ~ 26日8時 CEST
風向・風速不定 3m/s
視程10km以上
なし
25日3時 CEST ~ 25日7時 CEST に一時的に
視程4,000m
天気現象もや
25日10時 CEST ~ 25日12時 CEST に徐々に
風向・風速西 7m/s
25日19時 CEST ~ 25日21時 CEST に徐々に
風向・風速不定 2m/s
26日3時 CEST ~ 26日7時 CEST に一時的に
視程3,000m
天気現象もや
TAF LIRF 242300Z 2500/2606 VRB05KT CAVOK
TEMPO 2501/2505 4000 BR
BECMG 2508/2510 27013KT
BECMG 2517/2519 VRB04KT
TEMPO 2601/2605 3000 BR